Time;durP1;ratioP1;P1;durP2;ratioP2;P2;SDS_P1;SDS_P2;PMS_P1;PMS_P2;Temp;Humidity;BMP_temperature;BMP_pressure;BME280_temperature;BME280_humidity;BME280_pressure;Samples;Min_cycle;Max_cycle;Signal;HPM_P1;HPM_P2
2021/05/17 00:00:59;;;;;;;2.00;0.80;;;;;;;19.54;43.19;100431.38;143739;651;46035;-88
2021/05/17 00:03:28;;;;;;;5.30;0.98;;;;;;;19.52;43.12;100438.66;143741;589;45045;-87
2021/05/17 00:05:55;;;;;;;2.20;0.82;;;;;;;19.57;43.44;100440.97;143743;593;46010;-85
2021/05/17 00:08:23;;;;;;;2.78;1.00;;;;;;;19.56;43.55;100450.78;143740;590;46012;-80
2021/05/17 00:10:50;;;;;;;2.95;0.88;;;;;;;19.50;43.44;100458.34;143739;596;46021;-90
2021/05/17 00:13:18;;;;;;;3.12;0.95;;;;;;;19.49;43.78;100456.63;143735;566;47010;-92
2021/05/17 00:15:45;;;;;;;2.47;0.90;;;;;;;19.43;43.86;100466.75;143739;597;46010;-92
2021/05/17 00:18:13;;;;;;;1.75;0.80;;;;;;;19.45;43.99;100469.31;143735;573;46013;-92
2021/05/17 00:20:42;;;;;;;2.83;0.98;;;;;;;19.36;43.66;100470.81;143739;565;46010;-84
2021/05/17 00:23:09;;;;;;;3.87;1.30;;;;;;;19.29;44.01;100469.53;143738;612;46010;-82
2021/05/17 00:25:37;;;;;;;3.00;0.95;;;;;;;19.22;43.87;100474.41;143739;581;46011;-83
2021/05/17 00:28:05;;;;;;;4.12;1.10;;;;;;;19.13;44.34;100480.34;143737;573;46018;-90
2021/05/17 00:30:34;;;;;;;3.90;0.95;;;;;;;19.08;44.16;100463.84;143740;580;46010;-82
2021/05/17 00:33:01;;;;;;;3.17;0.95;;;;;;;19.01;44.33;100459.91;143737;565;46026;-84
2021/05/17 00:35:29;;;;;;;3.67;1.08;;;;;;;18.92;44.57;100467.53;143740;587;46011;-85
2021/05/17 00:37:56;;;;;;;2.50;0.80;;;;;;;18.87;44.96;100464.28;143740;679;46020;-87
2021/05/17 00:40:24;;;;;;;3.83;1.05;;;;;;;18.80;44.80;100456.84;143738;580;46021;-82
2021/05/17 00:42:53;;;;;;;3.15;0.90;;;;;;;18.75;44.92;100458.00;143731;579;46012;-81
2021/05/17 00:45:21;;;;;;;2.47;0.90;;;;;;;18.72;45.13;100468.81;143739;578;47008;-80
2021/05/17 00:47:52;;;;;;;3.35;1.10;;;;;;;18.69;44.90;100468.19;143736;585;46018;-80
2021/05/17 00:50:25;;;;;;;2.60;0.82;;;;;;;18.63;45.24;100466.78;143739;575;46008;-80
2021/05/17 00:52:54;;;;;;;2.90;0.90;;;;;;;18.60;45.43;100462.53;143740;640;45045;-80
2021/05/17 00:55:22;;;;;;;3.25;0.90;;;;;;;18.57;45.03;100464.53;143738;579;47008;-80
2021/05/17 00:57:50;;;;;;;3.05;1.00;;;;;;;18.55;45.20;100467.28;143729;569;46018;-80
2021/05/17 01:00:23;;;;;;;4.90;0.80;;;;;;;18.54;45.45;100454.09;143739;584;47008;-86
2021/05/17 01:02:50;;;;;;;2.33;0.87;;;;;;;18.50;45.31;100464.06;143738;630;46010;-87
2021/05/17 01:05:18;;;;;;;2.20;0.85;;;;;;;18.46;45.43;100459.06;143736;598;46010;-78
2021/05/17 01:07:47;;;;;;;3.72;1.02;;;;;;;18.42;45.50;100463.72;143732;585;46012;-82
2021/05/17 01:10:18;;;;;;;2.62;0.80;;;;;;;18.34;45.78;100450.06;143737;601;47008;-82
2021/05/17 01:12:47;;;;;;;4.75;1.08;;;;;;;18.37;45.47;100458.72;143732;590;47008;-86
2021/05/17 01:15:18;;;;;;;1.85;1.02;;;;;;;18.33;45.96;100454.53;143739;657;47008;-86
2021/05/17 01:17:46;;;;;;;1.35;0.73;;;;;;;18.28;45.68;100446.00;143735;579;46017;-87
2021/05/17 01:20:23;;;;;;;1.65;0.75;;;;;;;18.21;45.70;100453.53;143735;583;46020;-81
2021/05/17 01:25:42;;;;;;;1.75;0.70;;;;;;;18.32;46.18;100452.84;143729;607;46020;-90
2021/05/17 01:33:42;;;;;;;4.40;0.85;;;;;;;18.29;45.27;100420.28;143730;607;46922;-90
2021/05/17 01:36:12;;;;;;;1.62;0.70;;;;;;;18.55;45.17;100466.44;143740;578;46022;-90
2021/05/17 01:38:50;;;;;;;2.20;0.80;;;;;;;18.28;45.22;100461.94;143738;603;46014;-92
2021/05/17 01:41:20;;;;;;;2.72;0.73;;;;;;;18.39;45.71;100485.19;143737;565;46010;-86
2021/05/17 01:43:51;;;;;;;1.75;0.82;;;;;;;18.27;45.68;100471.75;143735;612;46018;-74
2021/05/17 01:46:22;;;;;;;2.47;0.90;;;;;;;18.16;46.08;100481.34;143737;604;46022;-82
2021/05/17 01:48:49;;;;;;;2.83;0.98;;;;;;;18.06;46.12;100467.78;143735;577;46012;-82
2021/05/17 01:51:20;;;;;;;3.17;0.90;;;;;;;17.97;46.12;100463.91;143739;575;46012;-82
2021/05/17 01:53:50;;;;;;;2.87;0.98;;;;;;;17.91;46.40;100462.47;143737;603;46016;-91
2021/05/17 01:56:20;;;;;;;2.35;0.90;;;;;;;17.89;46.29;100453.75;143735;583;46021;-88
2021/05/17 01:58:49;;;;;;;6.47;1.05;;;;;;;17.90;45.86;100446.63;143729;685;46033;-84
2021/05/17 02:01:17;;;;;;;2.67;0.80;;;;;;;17.90;46.26;100451.91;143736;607;46010;-84
2021/05/17 02:03:48;;;;;;;4.57;0.88;;;;;;;17.91;46.16;100459.81;143738;592;46010;-82
2021/05/17 02:06:18;;;;;;;1.98;0.90;;;;;;;17.93;46.07;100457.06;143739;565;47008;-82
2021/05/17 02:08:48;;;;;;;3.28;1.05;;;;;;;17.70;46.46;100419.53;143735;566;46013;-91
2021/05/17 02:11:19;;;;;;;5.05;0.85;;;;;;;17.82;46.63;100428.50;143735;573;47010;-89
2021/05/17 02:13:47;;;;;;;2.80;0.90;;;;;;;17.84;46.14;100452.31;143738;578;46010;-89
2021/05/17 02:16:16;;;;;;;1.92;0.85;;;;;;;17.95;46.20;100475.56;143737;564;46022;-91
2021/05/17 02:18:46;;;;;;;2.83;0.90;;;;;;;17.92;46.34;100476.63;143733;574;47021;-84
2021/05/17 02:21:17;;;;;;;3.20;1.25;;;;;;;17.91;46.50;100469.56;143735;596;46008;-86
2021/05/17 02:23:44;;;;;;;3.97;0.90;;;;;;;17.87;46.30;100470.72;143733;585;46024;-82
2021/05/17 02:26:13;;;;;;;1.95;0.85;;;;;;;17.80;46.64;100472.03;143736;716;47008;-84
2021/05/17 02:28:41;;;;;;;2.60;0.90;;;;;;;17.82;46.56;100470.13;143737;585;46012;-80
2021/05/17 02:31:09;;;;;;;7.18;1.10;;;;;;;17.79;46.79;100476.50;143737;564;46020;-80
2021/05/17 02:33:42;;;;;;;3.65;0.90;;;;;;;17.80;46.82;100482.66;143737;612;46010;-90
2021/05/17 02:36:11;;;;;;;4.22;1.00;;;;;;;17.77;46.63;100481.91;143738;677;46018;-85
2021/05/17 02:38:38;;;;;;;6.35;1.00;;;;;;;17.83;47.23;100482.47;143734;576;46008;-83
2021/05/17 02:41:05;;;;;;;3.47;0.95;;;;;;;17.74;47.30;100484.75;143738;594;46010;-81
2021/05/17 02:43:33;;;;;;;4.75;1.05;;;;;;;17.68;47.62;100486.94;143736;585;45919;-80
2021/05/17 02:46:02;;;;;;;2.78;0.88;;;;;;;17.60;47.32;100482.06;143738;704;47008;-80
2021/05/17 02:48:30;;;;;;;5.72;1.00;;;;;;;17.56;47.29;100494.72;143727;659;47019;-87
2021/05/17 02:50:59;;;;;;;3.35;1.00;;;;;;;17.54;47.49;100490.44;143739;601;46010;-89
2021/05/17 02:53:30;;;;;;;4.43;0.90;;;;;;;17.52;47.69;100495.84;143736;591;46010;-85
2021/05/17 02:56:23;;;;;;;5.00;1.10;;;;;;;17.24;47.66;100444.41;143739;576;46018;-86
2021/05/17 02:58:52;;;;;;;5.30;1.08;;;;;;;17.48;47.73;100488.13;143736;624;46016;-85
2021/05/17 03:01:43;;;;;;;5.30;0.80;;;;;;;17.44;47.65;100495.41;143737;628;46014;-87
2021/05/17 03:04:17;;;;;;;3.20;0.93;;;;;;;17.47;47.67;100505.00;143737;591;46016;-85
2021/05/17 03:06:59;;;;;;;;;;;;;;;17.47;47.44;100508.53;143736;977;47010;-82
2021/05/17 03:09:30;;;;;;;;;;;;;;;17.46;47.54;100503.31;143748;980;45915;-82
2021/05/17 03:12:00;;;;;;;4.47;1.02;;;;;;;17.43;47.52;100499.88;143745;731;46010;-81
2021/05/17 03:14:30;;;;;;;7.25;1.20;;;;;;;17.39;47.68;100508.97;143730;612;46905;-82
2021/05/17 03:16:59;;;;;;;2.97;1.10;;;;;;;17.41;47.64;100514.19;143735;680;46908;-80
2021/05/17 03:19:28;;;;;;;2.83;1.10;;;;;;;17.46;47.45;100521.91;143736;605;46012;-85
2021/05/17 03:22:00;;;;;;;4.50;1.27;;;;;;;17.50;47.45;100518.94;143738;597;46010;-82
2021/05/17 03:24:34;;;;;;;3.23;0.87;;;;;;;17.49;47.78;100516.41;143738;622;46016;-84
2021/05/17 03:27:28;;;;;;;;;;;;;;;17.46;47.66;100517.44;143744;971;46020;-84
2021/05/17 03:29:56;;;;;;;4.93;0.80;;;;;;;17.44;47.66;100519.31;143741;671;46010;-85
2021/05/17 03:32:25;;;;;;;2.37;0.80;;;;;;;17.44;47.49;100521.97;143736;579;46010;-86
2021/05/17 03:34:53;;;;;;;2.97;0.70;;;;;;;17.46;47.52;100529.84;143737;571;46010;-85
2021/05/17 03:37:20;;;;;;;4.55;1.00;;;;;;;17.48;47.80;100536.78;143737;718;46019;-85
2021/05/17 03:39:50;;;;;;;4.75;0.95;;;;;;;17.48;47.88;100535.91;143729;570;46906;-83
2021/05/17 03:42:17;;;;;;;6.07;1.10;;;;;;;17.46;47.99;100533.34;143738;576;45045;-84
2021/05/17 03:44:44;;;;;;;2.85;1.00;;;;;;;17.43;47.94;100529.06;143736;640;46018;-84
2021/05/17 03:47:12;;;;;;;4.25;1.00;;;;;;;17.46;48.36;100521.91;143731;631;47006;-89
2021/05/17 03:49:39;;;;;;;3.72;1.42;;;;;;;17.49;48.12;100534.97;143735;576;46905;-85
2021/05/17 03:52:06;;;;;;;3.25;0.95;;;;;;;17.52;48.29;100521.50;143736;573;46008;-89
2021/05/17 03:54:34;;;;;;;4.62;1.00;;;;;;;17.54;48.40;100530.25;143738;585;46006;-87
2021/05/17 03:57:03;;;;;;;11.63;1.40;;;;;;;17.53;48.68;100525.88;143736;569;46018;-89
2021/05/17 03:59:31;;;;;;;8.20;1.30;;;;;;;17.56;49.08;100526.56;143734;607;46013;-84
2021/05/17 04:01:58;;;;;;;5.60;1.30;;;;;;;17.62;49.03;100535.06;143737;576;47008;-82
2021/05/17 04:04:27;;;;;;;4.32;1.12;;;;;;;17.65;49.09;100527.78;143732;644;46008;-80
2021/05/17 04:07:08;;;;;;;5.82;1.33;;;;;;;17.69;48.86;100534.63;143737;585;46020;-85
2021/05/17 04:15:16;;;;;;;6.28;1.60;;;;;;;17.76;49.13;100543.06;143735;685;46010;-82
2021/05/17 04:17:43;;;;;;;6.03;1.62;;;;;;;17.74;49.52;100545.81;143736;606;47022;-83
2021/05/17 04:20:11;;;;;;;5.15;1.20;;;;;;;17.74;49.42;100551.12;143735;579;46016;-83
2021/05/17 04:22:38;;;;;;;5.90;1.62;;;;;;;17.73;49.51;100552.06;143736;768;47010;-84
2021/05/17 04:25:07;;;;;;;6.37;1.50;;;;;;;17.77;49.61;100553.59;143737;564;46016;-81
2021/05/17 04:27:34;;;;;;;6.55;1.90;;;;;;;17.77;49.68;100558.91;143739;577;47006;-83
2021/05/17 04:30:01;;;;;;;5.55;1.85;;;;;;;17.78;49.69;100567.72;143730;570;47018;-82
2021/05/17 04:32:28;;;;;;;10.18;2.20;;;;;;;17.82;49.95;100568.41;143736;592;47008;-84
2021/05/17 04:34:55;;;;;;;6.43;2.03;;;;;;;17.82;49.87;100574.56;143735;651;46010;-83
2021/05/17 04:37:22;;;;;;;9.40;2.42;;;;;;;17.85;49.72;100576.16;143738;586;47006;-84
2021/05/17 04:39:49;;;;;;;11.57;2.15;;;;;;;17.91;49.62;100570.50;143736;607;46010;-82
2021/05/17 04:42:16;;;;;;;8.27;1.90;;;;;;;17.99;49.96;100568.25;143737;671;47010;-83
2021/05/17 04:44:43;;;;;;;13.15;2.33;;;;;;;17.98;50.06;100571.03;143731;565;47008;-83
2021/05/17 04:47:11;;;;;;;7.40;2.10;;;;;;;18.00;50.23;100571.75;143738;597;47006;-82
2021/05/17 04:49:38;;;;;;;8.05;1.90;;;;;;;18.08;50.12;100566.84;143733;579;47018;-82
2021/05/17 04:52:05;;;;;;;12.27;2.58;;;;;;;18.25;50.28;100557.81;143736;580;47008;-83
2021/05/17 04:54:32;;;;;;;19.92;3.22;;;;;;;18.41;50.05;100569.19;143730;727;46012;-87
2021/05/17 04:57:00;;;;;;;12.07;2.97;;;;;;;18.59;50.09;100566.31;143738;581;46022;-88
2021/05/17 04:59:45;;;;;;;;;;;;;;;;;;;;;
2021/05/17 05:07:32;;;;;;;5.97;1.55;;;;;;;20.05;47.48;100577.06;143738;625;46008;-84
2021/05/17 05:09:59;;;;;;;5.15;1.35;;;;;;;20.23;47.14;100560.72;143735;607;46016;-84
2021/05/17 05:12:26;;;;;;;6.40;1.50;;;;;;;20.36;47.40;100572.22;143736;668;46020;-87
2021/05/17 05:14:53;;;;;;;8.45;1.80;;;;;;;20.45;46.55;100576.91;143736;603;46019;-86
2021/05/17 05:17:21;;;;;;;4.32;1.77;;;;;;;20.59;45.57;100573.22;143739;602;46008;-86
2021/05/17 05:19:48;;;;;;;6.72;1.80;;;;;;;20.72;46.69;100565.25;143728;602;46016;-91
2021/05/17 05:22:15;;;;;;;7.55;1.90;;;;;;;20.66;46.61;100530.97;143738;662;46021;-82
2021/05/17 05:24:43;;;;;;;4.95;1.80;;;;;;;21.01;45.44;100572.91;143737;646;46008;-83
2021/05/17 05:30:15;;;;;;;8.30;1.95;;;;;;;21.36;46.27;100584.56;143735;642;47010;-84
2021/05/17 05:35:35;;;;;;;5.90;2.00;;;;;;;21.66;45.73;100577.91;143737;692;46018;-81
2021/05/17 05:38:03;;;;;;;4.55;1.75;;;;;;;21.79;45.39;100579.50;143738;591;46010;-82
2021/05/17 05:40:30;;;;;;;5.18;1.80;;;;;;;21.92;44.98;100567.84;143736;620;46010;-87
2021/05/17 05:42:57;;;;;;;5.95;2.10;;;;;;;21.87;44.08;100548.66;143738;638;46010;-88
2021/05/17 05:45:24;;;;;;;7.60;2.28;;;;;;;22.05;44.29;100573.94;143729;635;46008;-87
2021/05/17 05:47:51;;;;;;;7.93;2.22;;;;;;;22.11;43.16;100578.78;143740;566;46006;-82
2021/05/17 05:50:18;;;;;;;6.50;2.40;;;;;;;22.23;44.00;100568.13;143736;608;46016;-82
2021/05/17 05:52:45;;;;;;;9.00;2.40;;;;;;;22.36;43.63;100581.38;143735;727;46020;-84
2021/05/17 05:55:14;;;;;;;16.70;2.20;;;;;;;22.47;44.30;100582.25;143736;572;46024;-86
2021/05/17 05:57:44;;;;;;;17.92;2.53;;;;;;;22.59;43.41;100585.72;143737;620;46020;-88
2021/05/17 06:00:17;;;;;;;12.88;2.30;;;;;;;22.69;42.99;100579.63;143738;605;46018;-87
2021/05/17 06:02:44;;;;;;;;;;;;;;;22.78;43.97;100585.09;143741;951;46020;-87
2021/05/17 06:05:12;;;;;;;5.78;2.30;;;;;;;22.82;42.15;100589.22;143741;587;46016;-86
2021/05/17 06:07:39;;;;;;;8.18;2.50;;;;;;;22.91;42.51;100592.97;143737;571;46011;-85
2021/05/17 06:10:10;;;;;;;5.10;1.70;;;;;;;23.01;41.11;100592.22;143733;588;46012;-85
2021/05/17 06:12:39;;;;;;;8.00;1.70;;;;;;;23.08;41.16;100594.25;143736;576;46010;-88
2021/05/17 06:15:08;;;;;;;3.05;1.05;;;;;;;23.17;41.23;100590.00;143736;592;47010;-86
2021/05/17 06:17:36;;;;;;;6.80;1.37;;;;;;;23.23;41.86;100583.28;143737;589;46010;-85
2021/05/17 06:20:05;;;;;;;8.80;1.40;;;;;;;23.36;41.22;100594.69;143735;670;46012;-85
2021/05/17 06:22:36;;;;;;;3.10;1.30;;;;;;;23.44;38.75;100594.88;143737;594;45021;-85
2021/05/17 06:25:08;;;;;;;4.85;1.20;;;;;;;23.55;38.85;100593.97;143737;626;46010;-86
2021/05/17 06:27:37;;;;;;;1.70;0.80;;;;;;;23.75;39.13;100594.09;143741;633;45018;-84
2021/05/17 06:30:10;;;;;;;1.80;0.55;;;;;;;23.91;39.00;100585.63;143735;634;46017;-77
2021/05/17 06:32:39;;;;;;;0.95;0.50;;;;;;;24.10;40.20;100601.81;143741;601;46010;-82
2021/05/17 06:35:12;;;;;;;1.35;0.60;;;;;;;24.20;38.95;100595.66;143731;628;46008;-83
2021/05/17 06:37:39;;;;;;;1.25;0.60;;;;;;;24.30;38.18;100588.47;143737;603;48008;-86
2021/05/17 06:40:08;;;;;;;2.55;0.65;;;;;;;24.39;38.74;100592.19;143733;597;46016;-84
2021/05/17 06:42:36;;;;;;;2.05;0.60;;;;;;;24.43;36.88;100591.78;143735;594;46020;-86
2021/05/17 06:45:04;;;;;;;2.22;0.70;;;;;;;24.57;37.65;100584.34;143735;581;46011;-86
2021/05/17 06:47:33;;;;;;;1.25;0.50;;;;;;;24.64;34.41;100574.78;143736;579;46020;-85
2021/05/17 06:50:01;;;;;;;1.48;0.60;;;;;;;24.75;35.83;100563.91;143729;701;47012;-85
2021/05/17 06:52:28;;;;;;;1.20;0.60;;;;;;;24.88;36.76;100552.06;143735;596;46021;-86
2021/05/17 06:55:04;;;;;;;2.87;0.65;;;;;;;25.00;36.53;100557.19;143737;894;46018;-85
2021/05/17 07:00:33;;;;;;;2.03;0.60;;;;;;;25.23;36.24;100540.75;143732;671;46013;-94
2021/05/17 07:03:05;;;;;;;1.90;0.60;;;;;;;25.40;37.56;100539.22;143739;590;46010;-90
2021/05/17 07:05:37;;;;;;;1.62;0.70;;;;;;;25.57;37.06;100531.41;143733;601;46020;-91
2021/05/17 07:13:38;;;;;;;2.12;0.73;;;;;;;25.70;33.99;100548.09;143737;572;46028;-76
2021/05/17 07:16:05;;;;;;;1.83;0.52;;;;;;;25.70;33.70;100549.91;143738;617;47012;-88
2021/05/17 07:18:32;;;;;;;2.17;0.60;;;;;;;25.79;36.20;100546.34;143738;630;46010;-87
2021/05/17 07:23:46;;;;;;;2.60;0.70;;;;;;;25.87;34.28;100540.25;143736;572;47012;-88
2021/05/17 07:26:18;;;;;;;3.35;0.77;;;;;;;25.93;32.16;100542.34;143732;634;47008;-88
2021/05/17 07:28:49;;;;;;;2.45;0.75;;;;;;;26.12;34.80;100547.69;143736;603;46020;-89
2021/05/17 07:31:16;;;;;;;4.20;0.62;;;;;;;26.20;34.63;100554.16;143736;634;46047;-88
2021/05/17 07:33:43;;;;;;;2.45;0.60;;;;;;;26.25;32.44;100551.88;143737;620;46020;-88
2021/05/17 07:36:12;;;;;;;2.22;0.70;;;;;;;26.32;33.27;100558.34;143737;610;46017;-89
2021/05/17 07:38:40;;;;;;;2.58;0.80;;;;;;;26.37;33.36;100549.81;143736;635;47012;-88
2021/05/17 07:41:07;;;;;;;1.45;0.60;;;;;;;26.47;33.95;100539.84;143736;602;46020;-88
2021/05/17 07:43:34;;;;;;;2.20;0.70;;;;;;;26.49;33.21;100533.34;143737;600;46021;-88
2021/05/17 07:46:01;;;;;;;2.20;0.68;;;;;;;26.66;33.17;100533.50;143737;581;46010;-87
2021/05/17 07:48:29;;;;;;;2.65;0.70;;;;;;;26.62;32.06;100530.25;143738;585;46020;-82
2021/05/17 07:50:56;;;;;;;1.50;0.60;;;;;;;26.69;32.35;100517.03;143732;604;46018;-87
2021/05/17 07:53:23;;;;;;;2.78;0.70;;;;;;;26.88;33.32;100520.62;143737;629;46021;-88
2021/05/17 07:55:52;;;;;;;2.25;0.80;;;;;;;26.94;32.19;100509.22;143738;587;46018;-89
2021/05/17 07:58:19;;;;;;;3.53;0.60;;;;;;;26.97;32.49;100517.84;143739;749;46010;-89
2021/05/17 08:00:46;;;;;;;0.90;0.50;;;;;;;27.02;31.75;100515.53;143735;610;46034;-88
2021/05/17 08:03:13;;;;;;;2.35;0.73;;;;;;;27.10;31.79;100513.91;143737;583;46029;-91
2021/05/17 08:05:40;;;;;;;3.20;0.80;;;;;;;27.20;32.96;100509.25;143736;593;47010;-89
2021/05/17 08:08:09;;;;;;;3.33;0.90;;;;;;;27.28;32.25;100511.19;143738;566;46021;-89
2021/05/17 08:10:36;;;;;;;2.53;0.60;;;;;;;27.35;32.65;100496.94;143736;609;46012;-91
2021/05/17 08:13:03;;;;;;;2.15;0.60;;;;;;;27.41;31.66;100495.47;143740;564;46008;-85
2021/05/17 08:15:30;;;;;;;2.53;0.70;;;;;;;27.50;31.50;100489.16;143735;593;46012;-88
2021/05/17 08:17:57;;;;;;;6.53;0.80;;;;;;;27.55;30.60;100485.13;143738;587;46010;-88
2021/05/17 08:20:24;;;;;;;2.58;0.77;;;;;;;27.67;32.09;100484.69;143736;567;46032;-88
2021/05/17 08:22:51;;;;;;;3.42;0.75;;;;;;;27.76;32.10;100477.50;143737;599;46008;-88
2021/05/17 08:25:19;;;;;;;1.87;0.70;;;;;;;27.76;31.12;100471.25;143737;630;47010;-90
2021/05/17 08:27:46;;;;;;;2.75;0.80;;;;;;;27.81;31.29;100480.53;143738;583;46020;-91
2021/05/17 08:30:14;;;;;;;1.02;0.60;;;;;;;27.90;31.20;100477.87;143737;576;46012;-92
2021/05/17 08:32:41;;;;;;;1.55;0.70;;;;;;;27.99;30.78;100482.31;143736;564;46020;-89
2021/05/17 08:35:09;;;;;;;2.92;0.80;;;;;;;28.09;30.73;100477.66;143737;585;46018;-88
2021/05/17 08:37:36;;;;;;;1.98;0.70;;;;;;;28.12;30.91;100469.25;143732;587;47002;-81
2021/05/17 08:40:05;;;;;;;3.62;0.82;;;;;;;28.13;30.74;100468.25;143731;571;46018;-92
2021/05/17 08:42:32;;;;;;;2.58;0.80;;;;;;;28.16;30.62;100457.09;143735;665;47008;-91
2021/05/17 08:45:09;;;;;;;3.45;0.90;;;;;;;28.20;30.31;100453.06;143736;567;46010;-92
2021/05/17 08:47:37;;;;;;;5.07;0.98;;;;;;;28.23;30.89;100457.28;143738;576;46012;-92
2021/05/17 08:50:05;;;;;;;4.37;1.00;;;;;;;28.25;31.01;100451.72;143735;569;46044;-93
2021/05/17 08:52:39;;;;;;;3.95;0.90;;;;;;;28.15;31.02;100439.22;143740;612;46010;-95
2021/05/17 08:57:37;;;;;;;4.78;1.05;;;;;;;28.54;30.00;100444.03;143738;589;46020;-90
2021/05/17 09:00:07;;;;;;;3.25;1.10;;;;;;;28.75;30.31;100442.72;143733;494;46012;-93
2021/05/17 09:02:43;;;;;;;3.92;1.20;;;;;;;28.43;30.49;100379.56;143734;594;46020;-92
2021/05/17 09:05:26;;;;;;;5.85;0.98;;;;;;;28.75;30.11;100434.63;143735;565;45019;-91
2021/05/17 09:07:59;;;;;;;2.97;1.05;;;;;;;28.46;30.62;100429.66;143741;581;46010;-95
2021/05/17 09:10:34;;;;;;;2.20;1.00;;;;;;;28.30;31.40;100427.78;143741;586;45906;-96
2021/05/17 09:13:08;;;;;;;3.62;1.00;;;;;;;28.24;31.22;100423.03;143739;590;46012;-83
2021/05/17 09:15:44;;;;;;;2.47;0.90;;;;;;;28.06;31.34;100426.72;143739;566;46010;-76
2021/05/17 09:18:27;;;;;;;3.55;1.00;;;;;;;28.05;32.33;100429.56;143738;569;47008;-89
2021/05/17 09:20:58;;;;;;;2.42;1.00;;;;;;;27.95;32.38;100427.81;143739;658;46013;-88
2021/05/17 09:23:31;;;;;;;1.80;0.85;;;;;;;27.97;31.59;100415.03;143738;575;46012;-83
2021/05/17 09:26:22;;;;;;;2.42;1.00;;;;;;;27.83;31.24;100430.00;143739;580;46010;-77
2021/05/17 09:28:51;;;;;;;2.03;1.08;;;;;;;27.69;31.20;100419.81;143737;660;46021;-86
2021/05/17 09:31:23;;;;;;;3.15;0.90;;;;;;;27.69;32.09;100428.75;143732;648;46014;-86
2021/05/17 09:33:56;;;;;;;2.35;0.93;;;;;;;27.61;32.50;100419.75;143742;573;46010;-85
2021/05/17 09:36:40;;;;;;;3.80;1.00;;;;;;;27.57;32.63;100424.66;143739;589;47009;-87
2021/05/17 09:39:16;;;;;;;5.62;0.90;;;;;;;27.55;32.41;100423.97;143739;573;46020;-92
2021/05/17 09:41:56;;;;;;;4.78;1.05;;;;;;;27.52;32.89;100418.91;143737;581;46018;-81
2021/05/17 09:44:31;;;;;;;1.90;0.90;;;;;;;27.50;31.60;100415.50;143736;570;46016;-82
2021/05/17 09:47:09;;;;;;;2.67;1.15;;;;;;;27.53;31.61;100418.72;143736;563;47010;-82
2021/05/17 09:50:04;;;;;;;1.45;0.90;;;;;;;27.34;31.68;100413.53;143739;586;46012;-83
2021/05/17 09:52:34;;;;;;;2.03;0.80;;;;;;;27.17;31.84;100421.53;143737;566;46012;-82
2021/05/17 09:55:12;;;;;;;4.62;1.05;;;;;;;27.01;32.00;100410.63;143739;644;46012;-82
2021/05/17 09:57:42;;;;;;;3.58;1.08;;;;;;;27.07;31.55;100412.69;143736;577;46011;-82
2021/05/17 10:00:31;;;;;;;1.92;0.95;;;;;;;27.02;31.57;100398.84;143740;571;46010;-84
2021/05/17 10:03:00;;;;;;;4.37;1.00;;;;;;;27.18;30.38;100398.94;143738;611;46018;-82
2021/05/17 10:05:35;;;;;;;3.50;1.00;;;;;;;27.12;30.21;100396.03;143738;564;46012;-80
2021/05/17 10:08:12;;;;;;;5.00;1.20;;;;;;;27.14;30.77;100394.88;143738;580;46018;-75
2021/05/17 10:10:39;;;;;;;3.90;0.90;;;;;;;27.10;31.01;100392.69;143738;588;46020;-75
2021/05/17 10:13:07;;;;;;;6.50;1.12;;;;;;;27.12;31.24;100394.22;143737;581;47018;-80
2021/05/17 10:15:36;;;;;;;1.73;0.88;;;;;;;27.09;30.72;100386.47;143739;591;46012;-81
2021/05/17 10:18:04;;;;;;;2.40;1.00;;;;;;;27.10;30.87;100388.12;143739;570;46010;-80
2021/05/17 10:20:31;;;;;;;2.80;1.10;;;;;;;27.16;30.87;100367.78;143738;744;46023;-80
2021/05/17 10:22:58;;;;;;;5.50;0.88;;;;;;;27.22;30.82;100385.19;143732;580;46029;-80
2021/05/17 10:25:31;;;;;;;3.10;0.90;;;;;;;27.09;30.88;100375.69;143734;741;47010;-80
2021/05/17 10:28:10;;;;;;;1.80;0.77;;;;;;;27.04;30.60;100375.31;143738;581;47010;-77
2021/05/17 10:30:38;;;;;;;6.80;0.90;;;;;;;27.06;30.64;100378.66;143742;581;46018;-77
2021/05/17 10:33:07;;;;;;;1.95;0.80;;;;;;;27.07;30.24;100385.75;143739;584;46020;-79
2021/05/17 10:36:06;;;;;;;1.27;0.57;;;;;;;26.85;30.26;100352.13;143737;716;46020;-79
2021/05/17 10:38:42;;;;;;;2.37;0.80;;;;;;;26.91;30.53;100381.09;143738;618;47010;-78
2021/05/17 10:41:50;;;;;;;2.67;0.82;;;;;;;26.97;30.06;100368.84;143740;566;46010;-78
2021/05/17 10:47:04;;;;;;;4.47;0.80;;;;;;;27.05;29.50;100371.63;143738;589;47008;-78
2021/05/17 10:49:38;;;;;;;3.15;0.80;;;;;;;26.93;30.01;100360.25;143732;583;46010;-78
2021/05/17 10:52:25;;;;;;;1.58;0.62;;;;;;;27.06;30.22;100356.28;143739;565;46018;-77
2021/05/17 10:55:03;;;;;;;1.85;0.90;;;;;;;27.12;29.69;100369.97;143738;595;46018;-77
2021/05/17 10:57:34;;;;;;;2.28;0.88;;;;;;;27.24;29.06;100364.28;143739;574;46012;-78
2021/05/17 11:02:46;;;;;;;2.45;0.90;;;;;;;27.32;29.43;100361.63;143740;612;46008;-79
2021/05/17 11:05:22;;;;;;;3.37;1.00;;;;;;;27.31;29.57;100365.34;143737;605;46018;-77
2021/05/17 11:07:56;;;;;;;2.50;1.10;;;;;;;27.38;29.34;100366.44;143739;598;46030;-77
2021/05/17 11:10:36;;;;;;;3.55;0.80;;;;;;;27.40;29.37;100364.41;143738;619;46011;-77
2021/05/17 11:13:21;;;;;;;3.30;0.80;;;;;;;27.32;29.10;100358.94;143739;613;46010;-78
2021/05/17 11:16:06;;;;;;;2.42;0.70;;;;;;;27.38;29.15;100355.66;143732;602;46012;-78
2021/05/17 11:18:48;;;;;;;3.72;0.80;;;;;;;27.52;28.92;100340.72;143739;609;46021;-79
2021/05/17 11:21:30;;;;;;;3.28;0.75;;;;;;;27.58;28.61;100341.91;143738;650;46016;-78
2021/05/17 11:24:08;;;;;;;3.40;0.62;;;;;;;27.61;28.42;100328.97;143739;569;46022;-78
2021/05/17 11:26:58;;;;;;;1.42;0.70;;;;;;;27.49;29.30;100336.50;143737;571;46907;-78
2021/05/17 11:29:35;;;;;;;5.18;0.73;;;;;;;27.66;28.52;100334.69;143738;572;46012;-77
2021/05/17 11:32:20;;;;;;;3.58;0.90;;;;;;;27.69;28.72;100317.34;143738;570;46018;-79
2021/05/17 11:35:12;;;;;;;1.50;0.80;;;;;;;27.80;28.69;100316.19;143739;606;46023;-77
2021/05/17 11:38:10;;;;;;;1.87;0.60;;;;;;;27.96;28.06;100318.06;143738;592;46016;-78
2021/05/17 11:40:52;;;;;;;2.87;0.75;;;;;;;27.96;28.54;100312.69;143733;583;47013;-77
2021/05/17 11:43:21;;;;;;;1.50;0.70;;;;;;;28.04;28.49;100310.03;143728;620;46018;-77
2021/05/17 11:45:48;;;;;;;3.40;0.80;;;;;;;28.13;28.43;100300.94;143737;581;46010;-78
2021/05/17 11:48:15;;;;;;;3.95;0.80;;;;;;;28.20;28.14;100293.84;143738;583;47020;-78
2021/05/17 11:50:44;;;;;;;3.05;0.68;;;;;;;28.22;28.35;100293.66;143738;633;46010;-78
2021/05/17 11:53:17;;;;;;;1.90;0.70;;;;;;;28.37;28.12;100286.56;143738;585;46018;-77
2021/05/17 11:55:51;;;;;;;3.55;0.80;;;;;;;28.41;28.23;100280.87;143740;577;47008;-78
2021/05/17 11:58:25;;;;;;;1.70;0.75;;;;;;;28.53;28.37;100272.22;143738;571;46012;-76
2021/05/17 12:01:18;;;;;;;3.53;0.70;;;;;;;28.73;28.68;100269.19;143737;565;46029;-77
2021/05/17 12:03:46;;;;;;;3.53;0.90;;;;;;;28.92;27.31;100261.72;143738;572;46012;-78
2021/05/17 12:06:13;;;;;;;2.33;0.60;;;;;;;28.82;27.32;100265.44;143739;621;46023;-77
2021/05/17 12:08:40;;;;;;;3.22;0.85;;;;;;;28.79;27.16;100263.09;143727;591;47018;-77
2021/05/17 12:11:13;;;;;;;2.05;0.80;;;;;;;28.81;27.17;100255.66;143737;675;46021;-82
2021/05/17 12:13:47;;;;;;;1.48;0.70;;;;;;;28.75;27.45;100256.34;143740;584;46016;-77
2021/05/17 12:16:27;;;;;;;2.42;0.60;;;;;;;28.75;27.57;100248.25;143739;565;48008;-78
2021/05/17 12:19:02;;;;;;;2.25;0.70;;;;;;;28.84;27.33;100241.81;143738;659;46014;-79
2021/05/17 12:21:37;;;;;;;3.05;0.80;;;;;;;28.87;27.80;100227.13;143743;577;45020;-77
2021/05/17 12:24:05;;;;;;;3.67;0.80;;;;;;;28.97;28.27;100232.31;143736;596;46010;-78
2021/05/17 12:27:02;;;;;;;3.37;1.00;;;;;;;29.17;27.71;100236.28;143740;593;46025;-78
2021/05/17 12:29:49;;;;;;;2.47;0.80;;;;;;;29.23;26.90;100247.41;143735;743;47020;-80